createdAt,value
2019-03-19T06:18:35.304Z,163.12
2019-03-19T06:19:46.743Z,168.75
2019-03-19T06:20:32.227Z,168.75
2019-03-19T06:21:32.161Z,174.38
2019-03-19T06:22:32.146Z,174.38
2019-03-19T06:23:32.209Z,185.62
2019-03-19T06:24:33.058Z,191.25
2019-03-19T06:25:39.644Z,191.25
2019-03-19T06:26:32.141Z,196.88
2019-03-19T06:27:32.591Z,202.50
2019-03-19T06:28:39.291Z,208.12
2019-03-19T06:29:32.080Z,213.75
2019-03-19T06:30:32.055Z,225.00
2019-03-19T06:31:32.086Z,230.62
2019-03-19T06:32:32.043Z,236.25
2019-03-19T06:34:40.976Z,247.50
2019-03-19T06:35:40.798Z,253.12
2019-03-19T06:36:40.870Z,253.12
2019-03-19T06:37:40.773Z,258.75
2019-03-19T06:38:46.058Z,270.00
2019-03-19T06:39:40.771Z,281.25
2019-03-19T06:40:40.743Z,286.88
2019-03-19T06:41:40.733Z,298.12
2019-03-19T06:42:41.474Z,309.38
2019-03-19T06:44:12.714Z,326.25
2019-03-19T06:44:40.718Z,337.50
2019-03-19T06:45:40.688Z,641.25
2019-03-19T06:46:40.696Z,1119.38
2019-03-19T06:47:56.484Z,646.88
2019-03-19T06:48:40.688Z,1001.25
2019-03-19T06:49:47.938Z,1215.00
2019-03-19T06:50:45.274Z,1333.12
2019-03-19T06:51:41.689Z,916.88
2019-03-19T06:53:01.640Z,405.00
2019-03-19T06:53:40.633Z,410.62
2019-03-19T06:54:48.675Z,388.12
2019-03-19T06:56:50.494Z,382.50
2019-03-19T06:57:57.512Z,388.12
2019-03-19T06:58:57.762Z,393.75
2019-03-19T07:02:23.272Z,410.62
2019-03-19T07:03:34.659Z,416.25
2019-03-19T07:06:30.557Z,444.38
2019-03-19T07:07:46.421Z,455.62
2019-03-19T07:08:31.372Z,461.25
2019-03-19T07:09:37.542Z,466.88
2019-03-19T07:10:30.888Z,478.12
2019-03-19T07:11:30.381Z,478.12
2019-03-19T07:12:51.354Z,466.88
2019-03-19T07:13:30.299Z,461.25
2019-03-19T07:14:30.878Z,433.12
2019-03-19T07:15:30.293Z,433.12
2019-03-19T07:16:30.265Z,444.38
2019-03-19T07:17:30.325Z,466.88
2019-03-19T07:18:33.714Z,478.12
2019-03-19T07:19:38.441Z,500.62
2019-03-19T07:20:31.982Z,556.88
2019-03-19T07:21:30.922Z,590.62
2019-03-19T07:23:39.995Z,652.50
2019-03-19T07:24:40.669Z,1901.25
2019-03-19T07:25:39.953Z,1946.25
2019-03-19T07:26:39.960Z,1608.75
2019-03-19T07:27:39.909Z,1575.00
2019-03-19T07:28:39.967Z,1451.25
2019-03-19T07:29:39.889Z,1940.62
2019-03-19T07:30:40.974Z,2424.38
2019-03-19T07:31:47.059Z,1575.00
2019-03-19T07:32:39.878Z,1243.12
2019-03-19T07:33:39.845Z,793.12
2019-03-19T07:34:39.883Z,1063.12
2019-03-19T07:35:39.840Z,832.50
2019-03-19T07:37:39.814Z,1659.38
2019-03-19T07:38:40.707Z,1383.75
2019-03-19T07:39:39.800Z,1850.62
2019-03-19T07:40:39.853Z,1423.12
2019-03-19T07:41:41.956Z,1170.00
2019-03-19T07:42:39.771Z,1496.25
2019-03-19T07:43:39.738Z,1113.75
2019-03-19T07:44:39.729Z,1276.88
2019-03-19T07:45:39.720Z,849.38
2019-03-19T07:46:40.761Z,866.25
2019-03-19T07:47:39.718Z,781.88
2019-03-19T07:48:39.706Z,725.62
2019-03-19T07:49:39.708Z,641.25
2019-03-19T07:50:39.715Z,590.62
2019-03-19T07:51:46.274Z,573.75
2019-03-19T07:52:39.667Z,596.25
2019-03-19T07:53:39.684Z,624.38
2019-03-19T07:54:39.636Z,635.62
2019-03-19T07:55:39.636Z,630.00
2019-03-19T07:56:39.828Z,663.75
2019-03-19T07:57:39.610Z,725.62
2019-03-19T07:58:45.207Z,843.75
2019-03-19T07:59:40.594Z,1321.88
2019-03-19T08:00:39.586Z,1254.38
2019-03-19T08:01:46.378Z,1833.75
2019-03-19T08:02:39.590Z,1451.25
2019-03-19T08:03:39.544Z,2064.38
2019-03-19T08:04:39.538Z,2430.00
2019-03-19T08:05:39.543Z,2019.38
2019-03-19T08:06:39.537Z,2953.12
2019-03-19T08:07:39.507Z,3166.88
2019-03-19T08:08:39.527Z,3183.75
2019-03-19T08:09:39.614Z,3240.00
2019-03-19T08:10:39.467Z,3240.00
2019-03-19T08:11:39.461Z,3121.88
2019-03-19T08:12:39.461Z,2981.25
2019-03-19T08:13:39.422Z,3133.12
2019-03-19T08:14:39.481Z,3240.00
2019-03-19T08:15:39.408Z,3358.12
2019-03-19T08:16:39.411Z,3656.25
2019-03-19T08:17:39.422Z,3723.75
2019-03-19T08:18:39.428Z,3656.25
2019-03-19T08:19:39.357Z,3352.50
2019-03-19T08:20:39.348Z,3324.38
2019-03-19T08:21:39.337Z,3414.38
2019-03-19T08:22:39.337Z,3774.38
2019-03-19T08:23:39.332Z,3633.75
2019-03-19T08:24:39.359Z,3487.50
2019-03-19T08:25:39.297Z,3330.00
2019-03-19T08:26:39.285Z,2362.50
2019-03-19T08:27:39.281Z,3054.38
2019-03-19T08:28:39.263Z,2373.75
2019-03-19T08:29:39.305Z,2036.25
2019-03-19T08:30:39.248Z,1766.25
2019-03-19T08:31:39.234Z,2446.88
2019-03-19T08:32:39.218Z,2328.75
2019-03-19T08:33:39.212Z,1608.75
2019-03-19T08:34:39.246Z,1670.62
2019-03-19T08:35:39.197Z,2559.38
2019-03-19T08:36:39.192Z,1996.88
2019-03-19T08:37:39.191Z,2261.25
2019-03-19T08:38:39.160Z,1833.75
2019-03-19T08:39:39.175Z,1738.12
2019-03-19T08:40:39.205Z,3223.12
2019-03-19T08:41:39.133Z,3988.12
2019-03-19T08:42:39.126Z,3661.88
2019-03-19T08:43:39.099Z,1440.00
2019-03-19T08:44:40.292Z,1400.62
2019-03-19T08:45:39.115Z,1665.00
2019-03-19T08:46:39.105Z,1935.00
2019-03-19T08:47:39.072Z,4235.62
2019-03-19T08:48:39.097Z,3223.12
2019-03-19T08:49:45.865Z,3718.12
2019-03-19T08:50:39.082Z,1563.75
2019-03-19T08:51:39.033Z,1490.62
2019-03-19T08:52:39.016Z,4038.75
2019-03-19T08:53:39.017Z,3622.50
2019-03-19T08:55:38.982Z,4145.62
2019-03-19T08:56:38.982Z,3144.38
2019-03-19T08:57:38.967Z,1800.00
2019-03-19T08:58:38.950Z,3616.88
2019-03-19T09:00:38.937Z,1496.25
2019-03-19T09:01:38.947Z,1186.88
2019-03-19T09:02:38.918Z,1501.88
2019-03-19T09:03:38.915Z,4095.00
2019-03-19T09:05:47.783Z,1569.38
2019-03-19T09:06:47.590Z,2722.50
2019-03-19T09:07:47.614Z,3060.00
2019-03-19T09:08:47.602Z,4196.25
2019-03-19T09:10:56.488Z,4134.38
2019-03-19T09:11:56.338Z,3954.38
2019-03-19T09:12:56.272Z,4218.75
2019-03-19T09:15:05.136Z,4145.62
2019-03-19T09:16:05.074Z,1400.62
2019-03-19T09:17:05.007Z,1226.25
2019-03-19T09:18:04.995Z,1254.38
2019-03-19T09:19:07.239Z,1282.50
2019-03-19T09:20:04.981Z,1586.25
2019-03-19T09:21:05.051Z,1299.38
2019-03-19T09:22:04.920Z,1192.50
2019-03-19T09:23:04.944Z,1198.12
2019-03-19T09:25:04.874Z,1316.25
2019-03-19T09:26:04.901Z,1642.50
2019-03-19T09:27:04.867Z,1608.75
2019-03-19T09:28:04.848Z,1479.38
2019-03-19T09:29:40.241Z,1243.12
2019-03-19T09:30:04.820Z,1164.38
2019-03-19T09:31:04.811Z,1170.00
2019-03-19T09:32:17.959Z,1203.75
2019-03-19T09:34:14.708Z,1355.62
2019-03-19T09:35:14.527Z,1226.25
2019-03-19T09:36:15.290Z,1243.12
2019-03-19T09:37:14.551Z,1288.12
2019-03-19T09:39:23.434Z,1125.00
2019-03-19T09:40:23.279Z,1113.75
2019-03-19T09:41:30.679Z,1108.12
2019-03-19T09:42:23.292Z,1108.12
2019-03-19T09:43:44.282Z,1113.75
2019-03-19T09:44:26.022Z,1102.50
2019-03-19T09:45:30.343Z,1085.62
2019-03-19T09:46:37.593Z,1063.12
2019-03-19T09:47:23.278Z,1046.25
2019-03-19T09:50:19.040Z,1063.12
2019-03-19T09:51:18.853Z,1141.88
2019-03-19T09:52:18.830Z,1108.12
2019-03-19T09:53:18.995Z,1063.12
2019-03-19T09:54:18.836Z,1040.62
2019-03-19T09:55:18.897Z,1035.00
2019-03-19T09:56:18.817Z,1040.62
2019-03-19T09:57:18.749Z,1068.75
2019-03-19T09:58:25.643Z,1108.12
2019-03-19T09:59:26.822Z,1141.88
2019-03-19T10:00:19.716Z,1175.62
2019-03-19T10:01:18.721Z,1203.75
2019-03-19T10:02:18.711Z,1254.38
2019-03-19T10:03:18.696Z,1321.88
2019-03-19T10:04:18.672Z,1400.62
2019-03-19T10:05:18.715Z,1513.12
2019-03-19T10:06:18.666Z,1563.75
2019-03-19T10:07:18.646Z,2041.88
2019-03-19T10:08:18.631Z,1530.00
2019-03-19T10:09:18.618Z,1597.50
2019-03-19T10:10:18.610Z,1642.50
2019-03-19T10:11:18.643Z,1732.50
2019-03-19T10:12:18.617Z,2075.62
2019-03-19T10:13:22.103Z,2092.50
2019-03-19T10:14:18.580Z,2705.62
2019-03-19T10:15:18.563Z,5028.75
2019-03-19T10:16:18.549Z,3566.25
2019-03-19T10:18:27.403Z,4567.50
2019-03-19T10:19:27.334Z,2536.88
2019-03-19T10:20:27.334Z,2131.88
2019-03-19T10:21:27.363Z,2261.25
2019-03-19T10:22:28.272Z,1991.25
2019-03-19T10:23:27.220Z,1906.88
2019-03-19T10:24:27.226Z,1794.38
2019-03-19T10:25:27.206Z,1726.88
2019-03-19T10:26:27.496Z,1698.75
2019-03-19T10:27:53.523Z,1681.88
2019-03-19T10:28:27.160Z,1749.38
2019-03-19T10:29:37.550Z,1698.75
2019-03-19T10:30:34.366Z,2008.12
2019-03-19T10:31:27.204Z,1878.75
2019-03-19T10:32:57.072Z,2385.00
2019-03-19T10:33:27.159Z,2761.88
2019-03-19T10:34:27.222Z,2250.00
2019-03-19T10:35:27.150Z,2401.88
2019-03-19T10:36:27.205Z,2385.00
2019-03-19T10:38:35.984Z,2075.62
2019-03-19T10:39:35.835Z,2058.75
2019-03-19T10:40:35.810Z,2098.12
2019-03-19T10:42:44.869Z,3673.12
2019-03-19T10:43:44.875Z,2300.62
2019-03-19T10:44:44.843Z,4657.50
2019-03-19T10:45:44.890Z,5236.88
2019-03-19T10:47:54.628Z,4623.75
2019-03-19T10:48:54.532Z,4809.38
2019-03-19T10:49:54.505Z,1676.25
2019-03-19T10:50:54.521Z,1434.38
2019-03-19T10:53:03.243Z,1400.62
2019-03-19T10:54:03.211Z,1344.38
2019-03-19T10:55:10.368Z,1338.75
2019-03-19T10:56:17.643Z,1344.38
2019-03-19T10:58:12.067Z,1400.62
2019-03-19T10:59:12.737Z,1378.12
2019-03-19T11:00:11.927Z,1355.62
2019-03-19T11:01:26.829Z,1316.25
2019-03-19T11:02:12.024Z,1316.25
2019-03-19T11:03:11.871Z,1333.12
2019-03-19T11:04:11.824Z,1355.62
2019-03-19T11:05:11.823Z,1366.88
2019-03-19T11:07:11.788Z,1372.50
2019-03-19T11:08:11.815Z,1383.75
2019-03-19T11:09:11.807Z,1445.62
2019-03-19T11:10:11.764Z,2345.62
2019-03-19T11:11:11.749Z,2227.50
2019-03-19T11:12:12.608Z,1580.62
2019-03-19T11:13:11.734Z,1631.25
2019-03-19T11:14:18.955Z,1906.88
2019-03-19T11:15:12.987Z,1822.50
2019-03-19T11:16:11.815Z,1906.88
2019-03-19T11:17:11.726Z,1800.00
2019-03-19T11:18:11.822Z,2773.12
2019-03-19T11:19:11.683Z,4230.00
2019-03-19T11:20:17.224Z,2739.38
2019-03-19T11:21:11.648Z,3245.62
2019-03-19T11:22:11.639Z,1996.88
2019-03-19T11:23:11.624Z,3026.25
2019-03-19T11:24:11.625Z,2030.62
2019-03-19T11:25:20.296Z,2025.00
2019-03-19T11:26:11.624Z,2694.38
2019-03-19T11:27:11.578Z,2688.75
2019-03-19T11:28:13.768Z,1957.50
2019-03-19T11:29:11.582Z,1586.25
2019-03-19T11:30:19.309Z,1423.12
2019-03-19T11:31:11.538Z,1400.62
2019-03-19T11:32:11.539Z,1389.38
2019-03-19T11:33:11.517Z,1383.75
2019-03-19T11:34:11.558Z,1417.50
2019-03-19T11:35:11.488Z,1451.25
2019-03-19T11:36:11.477Z,1485.00
2019-03-19T11:37:11.468Z,1715.62
2019-03-19T11:38:11.459Z,1929.38
2019-03-19T11:39:11.453Z,1800.00
2019-03-19T11:40:21.259Z,1760.62
2019-03-19T11:41:11.427Z,1625.62
2019-03-19T11:42:11.417Z,1726.88
2019-03-19T11:43:11.406Z,1496.25
2019-03-19T11:44:11.391Z,1541.25
2019-03-19T11:45:18.186Z,1541.25
2019-03-19T11:46:11.410Z,1518.75
2019-03-19T11:47:11.360Z,1490.62
2019-03-19T11:48:11.355Z,1496.25
2019-03-19T11:49:11.341Z,1603.12
2019-03-19T11:50:11.325Z,1591.88
2019-03-19T11:51:11.337Z,1603.12
2019-03-19T11:52:11.349Z,1636.88
2019-03-19T11:53:11.296Z,1591.88
2019-03-19T11:54:11.284Z,1569.38
2019-03-19T11:55:11.279Z,1665.00
2019-03-19T11:56:11.262Z,1580.62
2019-03-19T11:57:11.274Z,1546.88
2019-03-19T11:58:11.280Z,1462.50
2019-03-19T11:59:11.243Z,1490.62
2019-03-19T12:00:11.792Z,1462.50
2019-03-19T12:01:12.121Z,1451.25
2019-03-19T12:02:11.233Z,1434.38
2019-03-19T12:03:15.875Z,1434.38
2019-03-19T12:04:20.155Z,1462.50
2019-03-19T12:05:11.169Z,1524.38
2019-03-19T12:06:11.168Z,1974.38
2019-03-19T12:07:11.187Z,1687.50
2019-03-19T12:08:11.141Z,1704.38
2019-03-19T12:09:11.169Z,1524.38
2019-03-19T12:10:11.154Z,1479.38
2019-03-19T12:11:11.102Z,1473.75
2019-03-19T12:12:11.739Z,1473.75
2019-03-19T12:13:12.231Z,1479.38
2019-03-19T12:14:11.069Z,1445.62
2019-03-19T12:15:11.064Z,1338.75
2019-03-19T12:16:11.111Z,1288.12
2019-03-19T12:17:11.040Z,1271.25
2019-03-19T12:18:12.089Z,1276.88
2019-03-19T12:19:11.021Z,1361.25
2019-03-19T12:20:20.522Z,1288.12
2019-03-19T12:21:18.194Z,1265.62
2019-03-19T12:22:13.703Z,1265.62
2019-03-19T12:23:23.240Z,1282.50
2019-03-19T12:24:18.187Z,1423.12
2019-03-19T12:25:11.782Z,1305.00
2019-03-19T12:26:18.946Z,1321.88
2019-03-19T12:27:10.933Z,1344.38
2019-03-19T12:28:10.989Z,1378.12
2019-03-19T12:29:11.159Z,1378.12
2019-03-19T12:30:22.048Z,1383.75
2019-03-19T12:31:18.683Z,1395.00
2019-03-19T12:32:10.961Z,1411.88
2019-03-19T12:37:06.901Z,1293.75
2019-03-19T12:39:25.407Z,1299.38
2019-03-19T12:40:51.367Z,1321.88
2019-03-19T12:41:22.286Z,1316.25
2019-03-19T12:42:34.671Z,1299.38
2019-03-19T12:43:29.457Z,1310.62
2019-03-19T12:44:29.985Z,1316.25
2019-03-19T12:45:36.752Z,1271.25
2019-03-19T12:46:29.433Z,1231.88
2019-03-19T12:47:33.419Z,1215.00
2019-03-19T12:48:24.973Z,1198.12
2019-03-19T12:56:27.282Z,1788.75
2019-03-19T13:00:33.542Z,1119.38
2019-03-19T13:02:31.104Z,1113.75
2019-03-19T13:10:01.606Z,1029.38
2019-03-19T13:10:42.055Z,1012.50
2019-03-19T13:11:41.563Z,1001.25
2019-03-19T13:14:36.170Z,1001.25
2019-03-19T13:17:03.764Z,1018.12
2019-03-19T13:19:42.194Z,1074.38
2019-03-19T13:24:28.762Z,1192.50
2019-03-19T13:27:29.495Z,1051.88
2019-03-19T13:28:44.667Z,1040.62
2019-03-19T13:31:03.588Z,1029.38
2019-03-19T13:38:20.564Z,1096.88
2019-03-19T13:41:38.219Z,1080.00
2019-03-19T13:42:38.135Z,1080.00
2019-03-19T13:43:38.133Z,1085.62
2019-03-19T13:44:38.683Z,1091.25
2019-03-19T13:45:45.833Z,1091.25
2019-03-19T13:46:45.890Z,1091.25
2019-03-19T13:49:21.522Z,1130.62
2019-03-19T13:49:47.697Z,1243.12
2019-03-19T13:51:57.563Z,1125.00
2019-03-19T13:52:58.083Z,1080.00
2019-03-19T13:54:18.364Z,1063.12
2019-03-19T13:56:06.240Z,956.25
2019-03-19T13:57:06.139Z,928.12
2019-03-19T13:58:06.174Z,905.62
2019-03-19T13:59:06.090Z,900.00
2019-03-19T14:01:14.930Z,911.25
2019-03-19T14:02:15.490Z,911.25
2019-03-19T14:03:14.792Z,900.00
2019-03-19T14:04:14.759Z,877.50
2019-03-19T14:06:23.916Z,871.88
2019-03-19T14:07:23.829Z,871.88
2019-03-19T14:08:23.741Z,877.50
2019-03-19T14:10:32.550Z,871.88
2019-03-19T14:11:40.367Z,877.50
2019-03-19T14:12:43.388Z,888.75
2019-03-19T14:13:40.413Z,894.38
2019-03-19T14:15:41.364Z,877.50
2019-03-19T14:16:41.203Z,883.12
2019-03-19T14:17:41.203Z,832.50
2019-03-19T14:18:41.207Z,815.62
2019-03-19T14:23:27.605Z,798.75
2019-03-19T14:25:36.312Z,765.00
2019-03-19T14:26:43.617Z,770.62
2019-03-19T14:27:36.174Z,776.25
2019-03-19T14:29:45.014Z,810.00
2019-03-19T14:30:45.607Z,815.62
2019-03-19T14:31:44.861Z,804.38
2019-03-19T14:32:45.592Z,793.12
2019-03-19T14:33:51.972Z,793.12
2019-03-19T14:34:45.658Z,798.75
2019-03-19T14:35:45.618Z,787.50
2019-03-19T14:36:44.828Z,776.25
2019-03-19T14:37:55.067Z,759.38
2019-03-19T14:39:53.654Z,720.00
2019-03-19T14:40:54.222Z,703.12
2019-03-19T14:41:53.515Z,686.25
2019-03-19T14:42:54.253Z,675.00
2019-03-19T14:45:04.877Z,663.75
2019-03-19T14:46:04.826Z,669.38
2019-03-19T14:47:04.712Z,675.00
2019-03-19T14:49:20.670Z,675.00
2019-03-19T14:50:20.328Z,675.00
2019-03-19T14:51:27.608Z,675.00
2019-03-19T14:52:20.320Z,663.75
2019-03-19T14:54:21.394Z,630.00
2019-03-19T14:55:21.962Z,607.50
2019-03-19T14:56:34.200Z,585.00
2019-03-19T14:58:31.147Z,562.50
2019-03-19T14:59:31.077Z,562.50
2019-03-19T15:00:31.114Z,551.25
2019-03-19T15:01:30.997Z,545.62
2019-03-19T15:03:39.854Z,528.75
2019-03-19T15:04:39.747Z,523.12
2019-03-19T15:05:39.707Z,523.12
2019-03-19T15:06:39.735Z,523.12
2019-03-19T15:08:19.130Z,528.75
2019-03-19T15:08:39.663Z,528.75
2019-03-19T15:09:39.619Z,523.12
2019-03-19T15:10:39.645Z,523.12
2019-03-19T15:11:39.606Z,523.12
2019-03-19T15:13:48.518Z,528.75
2019-03-19T15:14:48.373Z,528.75
2019-03-19T15:15:48.361Z,528.75
2019-03-19T15:16:48.624Z,523.12
2019-03-19T15:17:48.311Z,523.12
2019-03-19T15:18:48.271Z,528.75
2019-03-19T15:19:48.310Z,528.75
2019-03-19T15:20:48.256Z,523.12
2019-03-19T15:22:57.115Z,517.50
2019-03-19T15:23:57.102Z,523.12
2019-03-19T15:24:57.073Z,528.75
2019-03-19T15:25:59.288Z,528.75
2019-03-19T15:28:05.839Z,528.75
2019-03-19T15:29:05.781Z,534.38
2019-03-19T15:30:05.738Z,534.38
2019-03-19T15:31:05.758Z,528.75
2019-03-19T15:33:14.548Z,506.25
2019-03-19T15:34:14.447Z,495.00
2019-03-19T15:35:14.432Z,483.75
2019-03-19T15:36:14.501Z,472.50
2019-03-19T15:37:14.466Z,461.25
2019-03-19T15:38:14.357Z,450.00
2019-03-19T15:39:14.362Z,444.38
2019-03-19T15:40:14.329Z,433.12
2019-03-19T15:42:23.159Z,421.88
2019-03-19T15:43:23.846Z,416.25
2019-03-19T15:44:23.128Z,416.25
2019-03-19T15:45:23.160Z,410.62
2019-03-19T15:47:31.877Z,405.00
2019-03-19T15:48:31.773Z,399.38
2019-03-19T15:49:38.133Z,393.75
2019-03-19T15:50:32.769Z,388.12
2019-03-19T15:51:31.858Z,382.50
2019-03-19T15:52:31.703Z,371.25
2019-03-19T15:53:31.674Z,365.62
2019-03-19T15:54:31.677Z,360.00
2019-03-19T15:55:31.683Z,354.38
2019-03-19T15:56:38.517Z,348.75
2019-03-19T15:57:31.636Z,343.12
2019-03-19T15:58:31.619Z,343.12
2019-03-19T15:59:31.607Z,337.50
2019-03-19T16:00:31.634Z,337.50
2019-03-19T16:01:40.083Z,337.50
2019-03-19T16:02:32.626Z,343.12
2019-03-19T16:03:31.564Z,343.12
2019-03-19T16:04:31.553Z,337.50
2019-03-19T16:05:48.601Z,331.88
2019-03-19T16:06:31.568Z,326.25
2019-03-19T16:07:31.525Z,315.00
2019-03-19T16:08:31.533Z,303.75
2019-03-19T16:09:31.540Z,298.12
2019-03-19T16:11:07.472Z,298.12
2019-03-19T16:11:31.482Z,292.50
2019-03-19T16:12:31.464Z,286.88
2019-03-19T16:13:31.475Z,281.25
2019-03-19T16:14:31.448Z,281.25
2019-03-19T16:15:31.514Z,275.62
2019-03-19T16:16:31.424Z,275.62
2019-03-19T16:17:31.413Z,275.62
2019-03-19T16:18:31.407Z,270.00
2019-03-19T16:19:31.409Z,270.00
2019-03-19T16:20:55.511Z,270.00
2019-03-19T16:21:31.372Z,270.00
2019-03-19T16:22:31.394Z,264.38
2019-03-19T16:23:31.348Z,264.38
2019-03-19T16:24:31.352Z,264.38
2019-03-19T16:25:31.324Z,264.38
2019-03-19T16:26:31.317Z,264.38
2019-03-19T16:27:31.347Z,258.75
2019-03-19T16:28:31.290Z,253.12
2019-03-19T16:29:31.291Z,247.50
2019-03-19T16:31:50.431Z,230.62
2019-03-19T16:32:41.154Z,219.38
2019-03-19T16:33:40.142Z,208.12
2019-03-19T16:34:40.087Z,202.50
2019-03-19T16:35:40.089Z,191.25
2019-03-19T16:36:40.057Z,185.62
2019-03-19T16:37:40.071Z,185.62
2019-03-19T16:38:40.069Z,180.00
2019-03-19T16:39:54.823Z,174.38
2019-03-19T16:40:40.065Z,168.75
2019-03-19T16:41:40.013Z,163.12
2019-03-19T16:42:40.122Z,157.50
2019-03-19T16:43:39.982Z,151.88
2019-03-19T16:44:50.766Z,146.25
2019-03-19T16:45:40.941Z,140.62
2019-03-19T16:46:39.926Z,135.00
2019-03-19T16:47:39.941Z,135.00
2019-03-19T16:48:39.904Z,129.38
2019-03-19T16:50:04.309Z,129.38
2019-03-19T16:50:39.878Z,123.75
2019-03-19T16:51:39.903Z,123.75
2019-03-19T16:52:39.861Z,118.12
2019-03-19T16:53:40.721Z,112.50
2019-03-19T16:55:15.756Z,112.50
2019-03-19T16:55:39.864Z,106.88
2019-03-19T16:56:39.834Z,101.25
2019-03-19T16:57:39.807Z,95.62
2019-03-19T16:58:39.802Z,95.62
2019-03-19T17:00:02.888Z,95.62
2019-03-19T17:00:46.993Z,90.00
2019-03-19T17:01:41.967Z,90.00
2019-03-19T17:02:39.793Z,84.38
2019-03-19T17:03:46.909Z,78.75
2019-03-19T17:05:02.953Z,73.12
2019-03-19T17:05:42.310Z,67.50
2019-03-19T17:06:46.973Z,67.50
2019-03-19T17:07:39.745Z,61.88
2019-03-19T17:08:39.739Z,61.88
2019-03-19T17:09:39.720Z,56.25
2019-03-19T17:10:39.687Z,50.62
2019-03-19T17:11:39.666Z,50.62
2019-03-19T17:12:41.957Z,45.00
2019-03-19T17:13:39.660Z,45.00
2019-03-19T17:14:39.644Z,45.00
2019-03-19T17:15:39.699Z,39.38
2019-03-19T17:16:39.669Z,39.38
2019-03-19T17:17:39.744Z,33.75
2019-03-19T17:18:42.997Z,33.75
2019-03-19T17:19:39.587Z,28.12
2019-03-19T17:20:46.736Z,28.12
2019-03-19T17:21:39.603Z,22.50
2019-03-19T17:22:49.330Z,22.50
2019-03-19T17:23:39.600Z,22.50
2019-03-19T17:24:39.617Z,22.50
2019-03-19T17:25:39.553Z,16.88
2019-03-19T17:26:39.557Z,16.88
2019-03-19T17:27:39.509Z,16.88
2019-03-19T17:28:39.558Z,11.25
2019-03-19T17:29:39.503Z,11.25
2019-03-19T17:30:39.539Z,11.25
2019-03-19T17:31:39.504Z,11.25
2019-03-19T17:32:39.596Z,5.62
2019-03-19T17:34:00.471Z,5.62
2019-03-19T17:34:46.557Z,5.62
2019-03-19T17:35:39.469Z,5.62
2019-03-19T17:36:39.451Z,5.62
2019-03-19T17:37:39.416Z,5.62
2019-03-19T17:38:45.958Z,5.62
2019-03-19T17:39:39.422Z,0.00
2019-03-19T17:40:41.590Z,0.00
2019-03-19T17:41:39.362Z,0.00
2019-03-19T17:42:39.445Z,0.00
2019-03-19T17:43:46.024Z,0.00
2019-03-19T17:44:39.341Z,0.00
2019-03-19T17:45:39.310Z,0.00
2019-03-19T17:46:39.297Z,0.00
2019-03-19T17:47:39.295Z,0.00
2019-03-19T17:48:39.524Z,0.00
2019-03-19T17:49:39.280Z,0.00
2019-03-19T17:50:39.257Z,0.00
2019-03-19T17:56:09.913Z,0.00
2019-03-19T17:58:03.857Z,0.00
2019-03-19T18:00:33.631Z,0.00
2019-03-19T18:01:17.948Z,0.00
2019-03-19T18:02:23.828Z,0.00
2019-03-19T18:03:25.697Z,0.00
2019-03-19T18:04:17.846Z,0.00
2019-03-19T18:05:18.750Z,0.00
2019-03-19T18:06:19.916Z,0.00
2019-03-19T18:07:21.659Z,0.00
2019-03-19T18:08:17.914Z,0.00
2019-03-19T18:10:38.067Z,0.00
2019-03-19T18:11:27.838Z,0.00
2019-03-19T18:13:47.726Z,0.00
2019-03-19T18:14:37.333Z,0.00
2019-03-19T18:15:48.834Z,0.00
2019-03-19T18:16:49.899Z,0.00
2019-03-19T18:17:41.550Z,0.00
2019-03-19T18:19:48.522Z,0.00
2019-03-19T18:24:22.861Z,0.00
2019-03-19T18:27:32.117Z,0.00
2019-03-19T18:28:39.662Z,0.00
2019-03-19T18:29:32.766Z,0.00
2019-03-19T18:30:30.746Z,0.00
2019-03-19T18:31:35.914Z,0.00
2019-03-19T18:32:35.293Z,0.00
2019-03-19T18:33:23.555Z,0.00
2019-03-19T18:34:23.599Z,0.00
2019-03-19T18:35:23.586Z,0.00
2019-03-19T18:36:23.565Z,0.00
2019-03-19T18:37:23.628Z,0.00
2019-03-19T18:38:23.512Z,0.00
2019-03-19T18:39:23.468Z,0.00
2019-03-19T18:40:23.510Z,0.00
2019-03-19T18:41:23.456Z,0.00
2019-03-19T18:42:23.438Z,0.00
2019-03-19T18:43:23.434Z,0.00
2019-03-19T18:44:23.440Z,0.00
2019-03-19T18:45:23.458Z,0.00
2019-03-19T18:46:23.395Z,0.00
2019-03-19T18:47:23.386Z,0.00
2019-03-19T18:48:23.375Z,0.00
2019-03-19T18:49:23.398Z,0.00
2019-03-19T18:50:23.354Z,0.00
2019-03-19T18:51:23.389Z,0.00
2019-03-19T18:52:23.345Z,0.00
2019-03-19T18:53:23.317Z,0.00
2019-03-19T18:54:23.305Z,0.00
2019-03-19T18:55:23.329Z,0.00
2019-03-19T18:56:23.282Z,0.00
2019-03-19T18:57:23.310Z,0.00
2019-03-19T18:58:23.263Z,0.00
2019-03-19T18:59:23.250Z,0.00
2019-03-19T19:00:23.244Z,0.00
2019-03-19T19:01:23.275Z,0.00
2019-03-19T19:02:23.217Z,0.00
2019-03-19T19:03:23.214Z,0.00
2019-03-19T19:04:23.198Z,0.00
2019-03-19T19:05:23.185Z,0.00
2019-03-19T19:06:23.176Z,0.00
2019-03-19T19:07:23.221Z,0.00
2019-03-19T19:08:23.150Z,0.00
2019-03-19T19:09:23.141Z,0.00
2019-03-19T19:10:23.136Z,0.00
2019-03-19T19:11:23.130Z,0.00
2019-03-19T19:12:23.131Z,0.00
2019-03-19T19:13:23.141Z,0.00
2019-03-19T19:14:23.086Z,0.00
2019-03-19T19:15:23.078Z,0.00
2019-03-19T19:16:23.098Z,0.00
2019-03-19T19:17:23.055Z,0.00
2019-03-19T19:18:23.091Z,0.00
2019-03-19T19:19:23.048Z,0.00
2019-03-19T19:20:23.084Z,0.00
2019-03-19T19:21:23.010Z,0.00
2019-03-19T19:22:23.001Z,0.00
2019-03-19T19:23:23.012Z,0.00
2019-03-19T19:24:23.015Z,0.00
2019-03-19T19:25:23.000Z,0.00
2019-03-19T19:26:22.956Z,0.00
2019-03-19T19:27:22.947Z,0.00
2019-03-19T19:28:22.935Z,0.00
2019-03-19T19:29:22.940Z,0.00
2019-03-19T19:30:22.951Z,0.00
2019-03-19T19:31:22.958Z,0.00
2019-03-19T19:32:22.897Z,0.00
2019-03-19T19:33:22.883Z,0.00
2019-03-19T19:34:22.971Z,0.00
2019-03-19T19:35:22.897Z,0.00
2019-03-19T19:36:22.851Z,0.00
2019-03-19T19:37:22.850Z,0.00
2019-03-19T19:38:22.829Z,0.00
2019-03-19T19:39:22.816Z,0.00
2019-03-19T19:40:22.810Z,0.00
2019-03-19T19:41:22.835Z,0.00
2019-03-19T19:42:22.783Z,0.00
2019-03-19T19:43:22.786Z,0.00
2019-03-19T19:44:22.795Z,0.00
2019-03-19T19:45:22.753Z,0.00
2019-03-19T19:46:22.738Z,0.00
2019-03-19T19:47:22.731Z,0.00
2019-03-19T19:48:22.720Z,0.00
2019-03-19T19:49:22.755Z,0.00
2019-03-19T19:50:22.697Z,0.00
2019-03-19T19:51:22.686Z,0.00
2019-03-19T19:52:22.676Z,0.00
2019-03-19T19:53:22.666Z,0.00
2019-03-19T19:54:22.654Z,0.00
2019-03-19T19:55:22.700Z,0.00
2019-03-19T19:56:22.629Z,0.00
2019-03-19T19:57:22.622Z,0.00
2019-03-19T19:58:22.609Z,0.00
2019-03-19T19:59:22.596Z,0.00
2019-03-19T20:00:22.596Z,0.00
2019-03-19T20:01:22.629Z,0.00
2019-03-19T20:02:22.619Z,0.00
2019-03-19T20:03:22.555Z,0.00
2019-03-19T20:04:22.548Z,0.00
2019-03-19T20:05:22.535Z,0.00
2019-03-19T20:06:22.522Z,0.00
2019-03-19T20:07:22.519Z,0.00
2019-03-19T20:08:22.540Z,0.00
2019-03-19T20:09:22.490Z,0.00
2019-03-19T20:10:22.483Z,0.00
2019-03-19T20:11:22.471Z,0.00
2019-03-19T20:12:22.497Z,0.00
2019-03-19T20:13:22.445Z,0.00
2019-03-19T20:14:22.439Z,0.00
2019-03-19T20:15:22.437Z,0.00
2019-03-19T20:16:22.437Z,0.00
2019-03-19T20:17:22.404Z,0.00
2019-03-19T20:18:22.428Z,0.00
2019-03-19T20:19:22.383Z,0.00
2019-03-19T20:20:22.370Z,0.00
2019-03-19T20:21:22.373Z,0.00
2019-03-19T20:22:22.347Z,0.00
2019-03-19T20:23:22.338Z,0.00
2019-03-19T20:24:22.376Z,0.00
2019-03-19T20:25:22.316Z,0.00
2019-03-19T20:26:22.306Z,0.00
2019-03-19T20:27:22.306Z,0.00
2019-03-19T20:28:22.285Z,0.00
2019-03-19T20:29:22.276Z,0.00
2019-03-19T20:30:22.298Z,0.00
2019-03-19T20:31:22.252Z,0.00
2019-03-19T20:32:22.246Z,0.00
2019-03-19T20:33:25.111Z,0.00
2019-03-19T20:34:22.217Z,0.00
2019-03-19T20:35:22.207Z,0.00
2019-03-19T20:36:22.236Z,0.00
2019-03-19T20:37:22.186Z,0.00
2019-03-19T20:38:22.173Z,0.00
2019-03-19T20:39:22.184Z,0.00
2019-03-19T20:40:22.150Z,0.00
2019-03-19T20:41:22.141Z,0.00
2019-03-19T20:42:22.164Z,0.00
2019-03-19T20:43:22.118Z,0.00
2019-03-19T20:44:22.109Z,0.00